Omerville, Canada
Current Conditions -  °F | °C
As of 1:00 AM on Sunday 23 Nov 2014 (Local Time) from CYSC Reporting Station
Light Rain Light Rain  
Wind Chill: 30°   Ceiling: 400
Heat Index: 34°   Visibility: 1.2mi
Dew Point: 34°   Wind: 5mph
Humidity: 100%   Direction: 210°SSW
Pressure: 29.88"   Gusts: NA
Location:  45.28°N, 72.12°W
Report Text: CYSC 230600Z AUTO 21004KT 1 1/4SM -RA BR OVC004 01/01 A2988 RMK SLP128
Loading
Personal Weather Stations






























Interactive Weather Map New forecast layout! Learn more

10-Day Weather Forecast

Advertisements
Track Severe Weather on mobile